Kelso, WA (98626)

9:07 AM PST on February 14, 2016 (GMT -0800)
Kelso | | Change Station
CLOSE
Current Station
Personal Weather Station
Location: Kelso, WA
Elevation: 23 ft
Nearby Weather Stations

Elev 23 ft 46.16 °N, 122.91 °W | Updated 3 seconds ago

Rain
Rain
48.7 °F
Feels Like 49 °F
N
0.0
Wind Variable Wind from East
Gusts 2.5 mph

Today
High -- | Low -- °F
--% Chance of Precip.
Yesterday
High -- | Low -- °F
Precip. -- in
Pressure 30.24 in
Visibility 4.0 miles
Clouds Few 1200 ft
Overcast 2000 ft
Windchill 49 °F
Dew Point 48 °F
Humidity 98%
Rainfall 0.33 in
Snow Depth Not available.
7:16 AM 5:35 PM
Waxing Crescent, 43% visible
METAR KKLS 141655Z AUTO 15004KT 4SM FEW012 OVC020 09/08 A3024 RMK AO1
Pressure 30.24 in
Visibility 4.0 miles
Clouds Few 1200 ft
Overcast 2000 ft
Windchill 49 °F
Dew Point 48 °F
Humidity 98%
Rainfall 0.33 in
Snow Depth Not available.
7:16 AM 5:35 PM
Waxing Crescent, 43% visible
METAR KKLS 141655Z AUTO 15004KT 4SM FEW012 OVC020 09/08 A3024 RMK AO1

10-Day Weather Forecast

Almanac

Astronomy

Feb. 14, 2016 Rise Set
Actual Time
Civil Twilight
Nautical Twilight
Astronomical Twilight
Moon
Length of Visible Light
Length of Day
Tomorrow will be .
, % of the Moon is Illuminated

Today's Extremes

State Highs State Lows

Community

WunderPhotos

Upload Photos

1,892,849 photos uploaded!

WunderBlog® & News

Nearby

Air Quality

  Air Quality AQ Index Pollutant
Not available.

Snow Depth

Station Depth Elevation

Earthquake Activity

City Distance Mag. Time & Date
Minimum magnitude displayed is 2.5.

Coastal Water Temperatures

Place Temperature

Stations

Nearby Weather Stations

Station Location Temp. Windchill Dew Point Humidity Wind Precip. Elev Updated Type
                   

Watches & Warnings

There are currently no watches in effect.